sensor_id;sensor_type;location;lat;lon;timestamp;P1;durP1;ratioP1;P2;durP2;ratioP2
16248;SDS011;8232;51.678;6.610;2022-07-29T00:01:42;3.83;;;1.40;;
16248;SDS011;8232;51.678;6.610;2022-07-29T00:04:09;6.30;;;1.67;;
16248;SDS011;8232;51.678;6.610;2022-07-29T00:06:36;2.05;;;1.30;;
16248;SDS011;8232;51.678;6.610;2022-07-29T00:09:03;4.75;;;1.50;;
16248;SDS011;8232;51.678;6.610;2022-07-29T00:11:31;2.28;;;1.20;;
16248;SDS011;8232;51.678;6.610;2022-07-29T00:13:58;4.07;;;1.55;;
16248;SDS011;8232;51.678;6.610;2022-07-29T00:16:25;3.72;;;1.27;;
16248;SDS011;8232;51.678;6.610;2022-07-29T00:18:51;3.72;;;1.30;;
16248;SDS011;8232;51.678;6.610;2022-07-29T00:21:18;2.58;;;1.20;;
16248;SDS011;8232;51.678;6.610;2022-07-29T00:23:45;3.95;;;1.30;;
16248;SDS011;8232;51.678;6.610;2022-07-29T00:26:12;4.88;;;1.50;;
16248;SDS011;8232;51.678;6.610;2022-07-29T00:28:40;2.25;;;1.20;;
16248;SDS011;8232;51.678;6.610;2022-07-29T00:31:07;5.68;;;1.27;;
16248;SDS011;8232;51.678;6.610;2022-07-29T00:33:34;2.78;;;1.23;;
16248;SDS011;8232;51.678;6.610;2022-07-29T00:36:01;4.53;;;1.52;;
16248;SDS011;8232;51.678;6.610;2022-07-29T00:38:26;3.05;;;1.42;;
16248;SDS011;8232;51.678;6.610;2022-07-29T00:40:53;3.67;;;1.50;;
16248;SDS011;8232;51.678;6.610;2022-07-29T00:43:20;5.43;;;1.40;;
16248;SDS011;8232;51.678;6.610;2022-07-29T00:45:48;6.35;;;1.60;;
16248;SDS011;8232;51.678;6.610;2022-07-29T00:48:15;4.72;;;1.48;;
16248;SDS011;8232;51.678;6.610;2022-07-29T00:50:42;6.03;;;1.48;;
16248;SDS011;8232;51.678;6.610;2022-07-29T00:53:09;4.80;;;1.70;;
16248;SDS011;8232;51.678;6.610;2022-07-29T00:55:38;3.13;;;1.30;;
16248;SDS011;8232;51.678;6.610;2022-07-29T00:58:05;4.60;;;1.40;;
16248;SDS011;8232;51.678;6.610;2022-07-29T01:00:33;6.93;;;1.52;;
16248;SDS011;8232;51.678;6.610;2022-07-29T01:03:01;5.63;;;1.30;;
16248;SDS011;8232;51.678;6.610;2022-07-29T01:05:28;7.05;;;1.50;;
16248;SDS011;8232;51.678;6.610;2022-07-29T01:07:56;5.45;;;1.60;;
16248;SDS011;8232;51.678;6.610;2022-07-29T01:10:23;4.30;;;1.30;;
16248;SDS011;8232;51.678;6.610;2022-07-29T01:12:51;5.35;;;1.50;;
16248;SDS011;8232;51.678;6.610;2022-07-29T01:15:20;4.63;;;1.52;;
16248;SDS011;8232;51.678;6.610;2022-07-29T01:17:50;4.60;;;1.63;;
16248;SDS011;8232;51.678;6.610;2022-07-29T01:20:25;4.43;;;1.58;;
16248;SDS011;8232;51.678;6.610;2022-07-29T01:23:01;3.97;;;1.20;;
16248;SDS011;8232;51.678;6.610;2022-07-29T01:25:46;11.75;;;1.50;;
16248;SDS011;8232;51.678;6.610;2022-07-29T01:28:33;10.55;;;1.67;;
16248;SDS011;8232;51.678;6.610;2022-07-29T01:31:13;2.90;;;1.40;;
16248;SDS011;8232;51.678;6.610;2022-07-29T01:33:45;10.77;;;1.40;;
16248;SDS011;8232;51.678;6.610;2022-07-29T01:36:23;2.40;;;0.93;;
16248;SDS011;8232;51.678;6.610;2022-07-29T01:38:57;8.80;;;1.65;;
16248;SDS011;8232;51.678;6.610;2022-07-29T01:41:34;7.47;;;1.40;;
16248;SDS011;8232;51.678;6.610;2022-07-29T01:44:10;4.10;;;1.60;;
16248;SDS011;8232;51.678;6.610;2022-07-29T01:46:41;8.77;;;1.40;;
16248;SDS011;8232;51.678;6.610;2022-07-29T01:49:16;7.63;;;1.33;;
16248;SDS011;8232;51.678;6.610;2022-07-29T01:51:46;4.05;;;1.20;;
16248;SDS011;8232;51.678;6.610;2022-07-29T01:54:18;3.58;;;1.40;;
16248;SDS011;8232;51.678;6.610;2022-07-29T01:56:47;3.97;;;1.40;;
16248;SDS011;8232;51.678;6.610;2022-07-29T01:59:18;8.05;;;1.77;;
16248;SDS011;8232;51.678;6.610;2022-07-29T02:01:48;4.80;;;1.58;;
16248;SDS011;8232;51.678;6.610;2022-07-29T02:04:18;5.03;;;1.60;;
16248;SDS011;8232;51.678;6.610;2022-07-29T02:06:46;6.70;;;1.50;;
16248;SDS011;8232;51.678;6.610;2022-07-29T02:09:16;3.55;;;1.52;;
16248;SDS011;8232;51.678;6.610;2022-07-29T02:11:47;3.03;;;1.27;;
16248;SDS011;8232;51.678;6.610;2022-07-29T02:14:20;3.28;;;1.40;;
16248;SDS011;8232;51.678;6.610;2022-07-29T02:16:50;4.85;;;1.42;;
16248;SDS011;8232;51.678;6.610;2022-07-29T02:19:19;7.40;;;1.40;;
16248;SDS011;8232;51.678;6.610;2022-07-29T02:21:49;3.13;;;1.30;;
16248;SDS011;8232;51.678;6.610;2022-07-29T02:24:19;3.22;;;1.52;;
16248;SDS011;8232;51.678;6.610;2022-07-29T02:26:48;4.60;;;1.42;;
16248;SDS011;8232;51.678;6.610;2022-07-29T02:29:17;5.72;;;1.58;;
16248;SDS011;8232;51.678;6.610;2022-07-29T02:31:48;3.53;;;1.20;;
16248;SDS011;8232;51.678;6.610;2022-07-29T02:34:17;3.65;;;1.67;;
16248;SDS011;8232;51.678;6.610;2022-07-29T02:36:45;2.05;;;1.27;;
16248;SDS011;8232;51.678;6.610;2022-07-29T02:39:12;3.33;;;1.58;;
16248;SDS011;8232;51.678;6.610;2022-07-29T02:41:42;2.92;;;1.50;;
16248;SDS011;8232;51.678;6.610;2022-07-29T02:44:11;5.47;;;1.50;;
16248;SDS011;8232;51.678;6.610;2022-07-29T02:46:43;4.78;;;1.50;;
16248;SDS011;8232;51.678;6.610;2022-07-29T02:49:16;4.32;;;1.42;;
16248;SDS011;8232;51.678;6.610;2022-07-29T02:51:49;4.07;;;1.30;;
16248;SDS011;8232;51.678;6.610;2022-07-29T02:54:22;4.20;;;1.58;;
16248;SDS011;8232;51.678;6.610;2022-07-29T02:56:55;2.35;;;1.40;;
16248;SDS011;8232;51.678;6.610;2022-07-29T02:59:27;4.88;;;1.45;;
16248;SDS011;8232;51.678;6.610;2022-07-29T03:01:58;3.70;;;1.65;;
16248;SDS011;8232;51.678;6.610;2022-07-29T03:04:26;3.40;;;1.55;;
16248;SDS011;8232;51.678;6.610;2022-07-29T03:06:55;5.35;;;1.77;;
16248;SDS011;8232;51.678;6.610;2022-07-29T03:09:25;4.97;;;1.92;;
16248;SDS011;8232;51.678;6.610;2022-07-29T03:11:54;4.00;;;1.83;;
16248;SDS011;8232;51.678;6.610;2022-07-29T03:14:21;3.10;;;1.33;;
16248;SDS011;8232;51.678;6.610;2022-07-29T03:16:50;5.25;;;1.35;;
16248;SDS011;8232;51.678;6.610;2022-07-29T03:19:18;5.13;;;1.63;;
16248;SDS011;8232;51.678;6.610;2022-07-29T03:21:46;4.15;;;1.60;;
16248;SDS011;8232;51.678;6.610;2022-07-29T03:24:26;3.28;;;1.50;;
16248;SDS011;8232;51.678;6.610;2022-07-29T03:26:54;8.05;;;1.75;;
16248;SDS011;8232;51.678;6.610;2022-07-29T03:29:22;2.63;;;1.50;;
16248;SDS011;8232;51.678;6.610;2022-07-29T03:31:49;3.20;;;1.70;;
16248;SDS011;8232;51.678;6.610;2022-07-29T03:34:15;5.15;;;1.55;;
16248;SDS011;8232;51.678;6.610;2022-07-29T03:36:44;4.10;;;1.70;;
16248;SDS011;8232;51.678;6.610;2022-07-29T03:39:10;6.35;;;1.98;;
16248;SDS011;8232;51.678;6.610;2022-07-29T03:41:43;3.55;;;1.50;;
16248;SDS011;8232;51.678;6.610;2022-07-29T03:44:12;5.95;;;1.52;;
16248;SDS011;8232;51.678;6.610;2022-07-29T03:46:41;3.33;;;1.50;;
16248;SDS011;8232;51.678;6.610;2022-07-29T03:49:10;6.15;;;1.70;;
16248;SDS011;8232;51.678;6.610;2022-07-29T03:51:38;7.88;;;1.60;;
16248;SDS011;8232;51.678;6.610;2022-07-29T03:54:06;6.22;;;2.05;;
16248;SDS011;8232;51.678;6.610;2022-07-29T03:56:34;5.18;;;1.92;;
16248;SDS011;8232;51.678;6.610;2022-07-29T03:59:04;5.18;;;1.70;;
16248;SDS011;8232;51.678;6.610;2022-07-29T04:01:32;6.35;;;1.95;;
16248;SDS011;8232;51.678;6.610;2022-07-29T04:04:00;4.57;;;1.92;;
16248;SDS011;8232;51.678;6.610;2022-07-29T04:06:28;4.50;;;1.70;;
16248;SDS011;8232;51.678;6.610;2022-07-29T04:09:03;6.10;;;2.03;;
16248;SDS011;8232;51.678;6.610;2022-07-29T04:11:31;3.95;;;1.90;;
16248;SDS011;8232;51.678;6.610;2022-07-29T04:13:58;3.85;;;1.88;;
16248;SDS011;8232;51.678;6.610;2022-07-29T04:16:25;8.63;;;2.42;;
16248;SDS011;8232;51.678;6.610;2022-07-29T04:18:52;5.00;;;2.40;;
16248;SDS011;8232;51.678;6.610;2022-07-29T04:21:19;4.68;;;2.03;;
16248;SDS011;8232;51.678;6.610;2022-07-29T04:23:45;5.93;;;2.17;;
16248;SDS011;8232;51.678;6.610;2022-07-29T04:26:14;2.53;;;1.77;;
16248;SDS011;8232;51.678;6.610;2022-07-29T04:28:43;11.88;;;2.35;;
16248;SDS011;8232;51.678;6.610;2022-07-29T04:31:10;4.13;;;2.25;;
16248;SDS011;8232;51.678;6.610;2022-07-29T04:33:37;11.68;;;2.65;;
16248;SDS011;8232;51.678;6.610;2022-07-29T04:36:05;16.85;;;2.45;;
16248;SDS011;8232;51.678;6.610;2022-07-29T04:38:31;17.42;;;2.20;;
16248;SDS011;8232;51.678;6.610;2022-07-29T04:40:58;10.40;;;2.10;;
16248;SDS011;8232;51.678;6.610;2022-07-29T04:43:25;29.33;;;3.85;;
16248;SDS011;8232;51.678;6.610;2022-07-29T04:45:53;11.85;;;2.20;;
16248;SDS011;8232;51.678;6.610;2022-07-29T04:48:20;8.77;;;2.42;;
16248;SDS011;8232;51.678;6.610;2022-07-29T04:50:47;3.65;;;1.70;;
16248;SDS011;8232;51.678;6.610;2022-07-29T04:53:14;6.65;;;2.00;;
16248;SDS011;8232;51.678;6.610;2022-07-29T04:55:40;20.15;;;2.33;;
16248;SDS011;8232;51.678;6.610;2022-07-29T04:58:07;7.00;;;1.90;;
16248;SDS011;8232;51.678;6.610;2022-07-29T05:00:34;4.10;;;2.00;;
16248;SDS011;8232;51.678;6.610;2022-07-29T05:03:02;4.82;;;2.80;;
16248;SDS011;8232;51.678;6.610;2022-07-29T05:05:29;9.32;;;2.63;;
16248;SDS011;8232;51.678;6.610;2022-07-29T05:07:56;7.10;;;2.35;;
16248;SDS011;8232;51.678;6.610;2022-07-29T05:10:23;5.18;;;2.30;;
16248;SDS011;8232;51.678;6.610;2022-07-29T05:12:50;6.03;;;2.42;;
16248;SDS011;8232;51.678;6.610;2022-07-29T05:15:17;5.75;;;2.65;;
16248;SDS011;8232;51.678;6.610;2022-07-29T05:17:44;8.60;;;2.75;;
16248;SDS011;8232;51.678;6.610;2022-07-29T05:20:13;9.35;;;2.92;;
16248;SDS011;8232;51.678;6.610;2022-07-29T05:22:40;7.13;;;2.83;;
16248;SDS011;8232;51.678;6.610;2022-07-29T05:25:07;5.50;;;2.28;;
16248;SDS011;8232;51.678;6.610;2022-07-29T05:27:34;7.35;;;2.42;;
16248;SDS011;8232;51.678;6.610;2022-07-29T05:30:02;5.45;;;3.08;;
16248;SDS011;8232;51.678;6.610;2022-07-29T05:32:29;8.68;;;2.83;;
16248;SDS011;8232;51.678;6.610;2022-07-29T05:34:56;11.10;;;2.97;;
16248;SDS011;8232;51.678;6.610;2022-07-29T05:37:25;7.60;;;2.70;;
16248;SDS011;8232;51.678;6.610;2022-07-29T05:39:51;8.80;;;2.97;;
16248;SDS011;8232;51.678;6.610;2022-07-29T05:42:18;13.07;;;3.10;;
16248;SDS011;8232;51.678;6.610;2022-07-29T05:44:45;6.57;;;2.72;;
16248;SDS011;8232;51.678;6.610;2022-07-29T05:47:12;9.88;;;2.97;;
16248;SDS011;8232;51.678;6.610;2022-07-29T05:49:39;11.88;;;3.03;;
16248;SDS011;8232;51.678;6.610;2022-07-29T05:52:06;6.28;;;3.08;;
16248;SDS011;8232;51.678;6.610;2022-07-29T05:54:35;4.22;;;2.50;;
16248;SDS011;8232;51.678;6.610;2022-07-29T05:57:02;20.83;;;4.78;;
16248;SDS011;8232;51.678;6.610;2022-07-29T05:59:29;30.70;;;5.18;;
16248;SDS011;8232;51.678;6.610;2022-07-29T06:01:56;16.63;;;4.57;;
16248;SDS011;8232;51.678;6.610;2022-07-29T06:04:23;6.45;;;3.33;;
16248;SDS011;8232;51.678;6.610;2022-07-29T06:06:50;7.00;;;3.33;;
16248;SDS011;8232;51.678;6.610;2022-07-29T06:09:16;9.27;;;3.25;;
16248;SDS011;8232;51.678;6.610;2022-07-29T06:11:45;12.35;;;3.40;;
16248;SDS011;8232;51.678;6.610;2022-07-29T06:14:11;8.10;;;4.05;;
16248;SDS011;8232;51.678;6.610;2022-07-29T06:16:38;11.35;;;3.90;;
16248;SDS011;8232;51.678;6.610;2022-07-29T06:19:05;10.27;;;6.95;;
16248;SDS011;8232;51.678;6.610;2022-07-29T06:21:32;8.38;;;4.80;;
16248;SDS011;8232;51.678;6.610;2022-07-29T06:23:59;6.03;;;3.63;;
16248;SDS011;8232;51.678;6.610;2022-07-29T06:26:26;22.60;;;4.63;;
16248;SDS011;8232;51.678;6.610;2022-07-29T06:28:55;23.55;;;3.90;;
16248;SDS011;8232;51.678;6.610;2022-07-29T06:31:22;7.82;;;3.83;;
16248;SDS011;8232;51.678;6.610;2022-07-29T06:33:48;7.13;;;3.47;;
16248;SDS011;8232;51.678;6.610;2022-07-29T06:36:15;7.85;;;3.45;;
16248;SDS011;8232;51.678;6.610;2022-07-29T06:38:42;8.60;;;4.20;;
16248;SDS011;8232;51.678;6.610;2022-07-29T06:41:09;6.65;;;2.83;;
16248;SDS011;8232;51.678;6.610;2022-07-29T06:43:38;11.98;;;4.18;;
16248;SDS011;8232;51.678;6.610;2022-07-29T06:46:09;9.60;;;3.38;;
16248;SDS011;8232;51.678;6.610;2022-07-29T06:48:37;8.07;;;3.65;;
16248;SDS011;8232;51.678;6.610;2022-07-29T06:51:05;8.48;;;3.97;;
16248;SDS011;8232;51.678;6.610;2022-07-29T06:53:33;6.88;;;3.97;;
16248;SDS011;8232;51.678;6.610;2022-07-29T06:56:00;6.63;;;3.90;;
16248;SDS011;8232;51.678;6.610;2022-07-29T06:58:28;9.43;;;3.95;;
16248;SDS011;8232;51.678;6.610;2022-07-29T07:00:57;7.75;;;3.63;;
16248;SDS011;8232;51.678;6.610;2022-07-29T07:03:26;7.70;;;3.80;;
16248;SDS011;8232;51.678;6.610;2022-07-29T07:05:53;5.72;;;3.63;;
16248;SDS011;8232;51.678;6.610;2022-07-29T07:08:20;5.90;;;3.33;;
16248;SDS011;8232;51.678;6.610;2022-07-29T07:10:48;6.68;;;3.33;;
16248;SDS011;8232;51.678;6.610;2022-07-29T07:13:15;7.07;;;4.30;;
16248;SDS011;8232;51.678;6.610;2022-07-29T07:15:43;7.97;;;4.40;;
16248;SDS011;8232;51.678;6.610;2022-07-29T07:18:12;6.15;;;3.40;;
16248;SDS011;8232;51.678;6.610;2022-07-29T07:20:41;7.07;;;3.42;;
16248;SDS011;8232;51.678;6.610;2022-07-29T07:23:08;10.05;;;3.60;;
16248;SDS011;8232;51.678;6.610;2022-07-29T07:25:35;5.93;;;3.67;;
16248;SDS011;8232;51.678;6.610;2022-07-29T07:28:02;10.35;;;4.95;;
16248;SDS011;8232;51.678;6.610;2022-07-29T07:30:29;6.05;;;3.45;;
16248;SDS011;8232;51.678;6.610;2022-07-29T07:32:57;6.22;;;3.60;;
16248;SDS011;8232;51.678;6.610;2022-07-29T07:35:23;6.57;;;4.15;;
16248;SDS011;8232;51.678;6.610;2022-07-29T07:37:54;5.43;;;3.72;;
16248;SDS011;8232;51.678;6.610;2022-07-29T07:40:21;9.23;;;4.18;;
16248;SDS011;8232;51.678;6.610;2022-07-29T07:42:48;6.80;;;4.25;;
16248;SDS011;8232;51.678;6.610;2022-07-29T07:45:15;8.90;;;4.50;;
16248;SDS011;8232;51.678;6.610;2022-07-29T07:47:42;7.28;;;4.35;;
16248;SDS011;8232;51.678;6.610;2022-07-29T07:50:10;10.20;;;4.93;;
16248;SDS011;8232;51.678;6.610;2022-07-29T07:52:45;8.25;;;4.20;;
16248;SDS011;8232;51.678;6.610;2022-07-29T07:55:15;7.88;;;4.43;;
16248;SDS011;8232;51.678;6.610;2022-07-29T07:57:42;7.10;;;5.78;;
16248;SDS011;8232;51.678;6.610;2022-07-29T08:00:10;10.23;;;5.20;;
16248;SDS011;8232;51.678;6.610;2022-07-29T08:02:38;8.73;;;6.30;;
16248;SDS011;8232;51.678;6.610;2022-07-29T08:05:05;9.35;;;6.68;;
16248;SDS011;8232;51.678;6.610;2022-07-29T08:07:32;10.10;;;6.70;;
16248;SDS011;8232;51.678;6.610;2022-07-29T08:10:00;10.13;;;6.60;;
16248;SDS011;8232;51.678;6.610;2022-07-29T08:12:28;12.07;;;6.38;;
16248;SDS011;8232;51.678;6.610;2022-07-29T08:14:55;6.97;;;5.22;;
16248;SDS011;8232;51.678;6.610;2022-07-29T08:17:22;12.00;;;5.68;;
16248;SDS011;8232;51.678;6.610;2022-07-29T08:19:49;8.98;;;5.75;;
16248;SDS011;8232;51.678;6.610;2022-07-29T08:22:16;6.28;;;5.10;;
16248;SDS011;8232;51.678;6.610;2022-07-29T08:24:42;7.88;;;4.93;;
16248;SDS011;8232;51.678;6.610;2022-07-29T08:27:12;8.70;;;5.28;;
16248;SDS011;8232;51.678;6.610;2022-07-29T08:29:40;6.32;;;4.88;;
16248;SDS011;8232;51.678;6.610;2022-07-29T08:32:07;9.70;;;6.20;;
16248;SDS011;8232;51.678;6.610;2022-07-29T08:34:34;7.82;;;6.05;;
16248;SDS011;8232;51.678;6.610;2022-07-29T08:37:01;11.68;;;5.57;;
16248;SDS011;8232;51.678;6.610;2022-07-29T08:39:28;8.55;;;5.28;;
16248;SDS011;8232;51.678;6.610;2022-07-29T08:41:54;6.32;;;4.53;;
16248;SDS011;8232;51.678;6.610;2022-07-29T08:44:22;7.13;;;5.18;;
16248;SDS011;8232;51.678;6.610;2022-07-29T08:46:50;10.55;;;5.88;;
16248;SDS011;8232;51.678;6.610;2022-07-29T08:49:17;9.13;;;6.53;;
16248;SDS011;8232;51.678;6.610;2022-07-29T08:51:43;11.00;;;6.30;;
16248;SDS011;8232;51.678;6.610;2022-07-29T08:54:11;10.13;;;6.13;;
16248;SDS011;8232;51.678;6.610;2022-07-29T08:56:42;28.42;;;7.80;;
16248;SDS011;8232;51.678;6.610;2022-07-29T08:59:09;14.77;;;6.70;;
16248;SDS011;8232;51.678;6.610;2022-07-29T09:01:37;7.95;;;5.88;;
16248;SDS011;8232;51.678;6.610;2022-07-29T09:04:10;6.43;;;5.70;;
16248;SDS011;8232;51.678;6.610;2022-07-29T09:06:39;22.13;;;8.00;;
16248;SDS011;8232;51.678;6.610;2022-07-29T09:09:09;14.90;;;6.82;;
16248;SDS011;8232;51.678;6.610;2022-07-29T09:11:36;24.35;;;7.35;;
16248;SDS011;8232;51.678;6.610;2022-07-29T09:14:04;13.60;;;6.47;;
16248;SDS011;8232;51.678;6.610;2022-07-29T09:16:43;16.50;;;6.38;;
16248;SDS011;8232;51.678;6.610;2022-07-29T09:19:20;11.63;;;6.03;;
16248;SDS011;8232;51.678;6.610;2022-07-29T09:21:48;12.10;;;5.90;;
16248;SDS011;8232;51.678;6.610;2022-07-29T09:24:25;8.00;;;5.22;;
16248;SDS011;8232;51.678;6.610;2022-07-29T09:27:02;7.10;;;5.53;;
16248;SDS011;8232;51.678;6.610;2022-07-29T09:29:33;7.70;;;5.28;;
16248;SDS011;8232;51.678;6.610;2022-07-29T09:32:00;8.95;;;5.85;;
16248;SDS011;8232;51.678;6.610;2022-07-29T09:34:32;7.38;;;5.10;;
16248;SDS011;8232;51.678;6.610;2022-07-29T09:36:59;9.30;;;5.20;;
16248;SDS011;8232;51.678;6.610;2022-07-29T09:39:27;9.50;;;5.30;;
16248;SDS011;8232;51.678;6.610;2022-07-29T09:41:56;8.15;;;5.05;;
16248;SDS011;8232;51.678;6.610;2022-07-29T09:44:24;6.45;;;5.22;;
16248;SDS011;8232;51.678;6.610;2022-07-29T09:46:52;6.93;;;5.32;;
16248;SDS011;8232;51.678;6.610;2022-07-29T09:49:20;5.80;;;4.80;;
16248;SDS011;8232;51.678;6.610;2022-07-29T09:51:48;7.47;;;4.72;;
16248;SDS011;8232;51.678;6.610;2022-07-29T09:54:26;9.15;;;5.00;;
16248;SDS011;8232;51.678;6.610;2022-07-29T09:56:54;9.98;;;4.65;;
16248;SDS011;8232;51.678;6.610;2022-07-29T09:59:21;7.40;;;4.40;;
16248;SDS011;8232;51.678;6.610;2022-07-29T10:01:51;6.68;;;4.80;;
16248;SDS011;8232;51.678;6.610;2022-07-29T10:04:18;7.60;;;4.82;;
16248;SDS011;8232;51.678;6.610;2022-07-29T10:06:56;7.80;;;5.13;;
16248;SDS011;8232;51.678;6.610;2022-07-29T10:09:23;7.82;;;5.40;;
16248;SDS011;8232;51.678;6.610;2022-07-29T10:12:03;5.38;;;4.50;;
16248;SDS011;8232;51.678;6.610;2022-07-29T10:14:36;6.20;;;5.10;;
16248;SDS011;8232;51.678;6.610;2022-07-29T10:17:04;8.75;;;5.13;;
16248;SDS011;8232;51.678;6.610;2022-07-29T10:19:32;8.63;;;5.07;;
16248;SDS011;8232;51.678;6.610;2022-07-29T10:22:01;8.45;;;5.32;;
16248;SDS011;8232;51.678;6.610;2022-07-29T10:24:30;8.38;;;5.13;;
16248;SDS011;8232;51.678;6.610;2022-07-29T10:26:58;8.48;;;4.60;;
16248;SDS011;8232;51.678;6.610;2022-07-29T10:29:26;7.25;;;5.03;;
16248;SDS011;8232;51.678;6.610;2022-07-29T10:31:57;6.47;;;5.15;;
16248;SDS011;8232;51.678;6.610;2022-07-29T10:34:44;8.95;;;4.90;;
16248;SDS011;8232;51.678;6.610;2022-07-29T10:37:25;8.75;;;4.03;;
16248;SDS011;8232;51.678;6.610;2022-07-29T10:39:56;8.18;;;3.78;;
16248;SDS011;8232;51.678;6.610;2022-07-29T10:42:51;7.35;;;3.55;;
16248;SDS011;8232;51.678;6.610;2022-07-29T10:45:19;5.57;;;3.03;;
16248;SDS011;8232;51.678;6.610;2022-07-29T10:47:47;6.40;;;3.50;;
16248;SDS011;8232;51.678;6.610;2022-07-29T10:50:15;5.82;;;3.40;;
16248;SDS011;8232;51.678;6.610;2022-07-29T10:52:55;8.32;;;3.65;;
16248;SDS011;8232;51.678;6.610;2022-07-29T10:55:32;5.80;;;3.55;;
16248;SDS011;8232;51.678;6.610;2022-07-29T10:58:14;6.22;;;3.80;;
16248;SDS011;8232;51.678;6.610;2022-07-29T11:00:42;4.75;;;3.47;;
16248;SDS011;8232;51.678;6.610;2022-07-29T11:03:10;7.53;;;3.47;;
16248;SDS011;8232;51.678;6.610;2022-07-29T11:06:09;5.03;;;3.25;;
16248;SDS011;8232;51.678;6.610;2022-07-29T11:08:38;7.07;;;3.53;;
16248;SDS011;8232;51.678;6.610;2022-07-29T11:14:05;6.22;;;3.65;;
16248;SDS011;8232;51.678;6.610;2022-07-29T11:19:30;6.95;;;3.42;;
16248;SDS011;8232;51.678;6.610;2022-07-29T11:21:57;5.35;;;3.40;;
16248;SDS011;8232;51.678;6.610;2022-07-29T11:24:26;8.70;;;3.00;;
16248;SDS011;8232;51.678;6.610;2022-07-29T11:27:08;5.82;;;3.03;;
16248;SDS011;8232;51.678;6.610;2022-07-29T11:29:39;5.00;;;2.97;;
16248;SDS011;8232;51.678;6.610;2022-07-29T11:32:15;5.70;;;3.10;;
16248;SDS011;8232;51.678;6.610;2022-07-29T11:34:44;3.83;;;3.17;;
16248;SDS011;8232;51.678;6.610;2022-07-29T11:37:19;6.20;;;3.08;;
16248;SDS011;8232;51.678;6.610;2022-07-29T11:42:43;5.15;;;3.25;;
16248;SDS011;8232;51.678;6.610;2022-07-29T11:45:12;4.07;;;3.00;;
16248;SDS011;8232;51.678;6.610;2022-07-29T11:47:47;6.90;;;3.25;;
16248;SDS011;8232;51.678;6.610;2022-07-29T11:50:17;6.30;;;3.38;;
16248;SDS011;8232;51.678;6.610;2022-07-29T11:53:00;6.00;;;3.22;;
16248;SDS011;8232;51.678;6.610;2022-07-29T11:55:30;5.47;;;2.95;;
16248;SDS011;8232;51.678;6.610;2022-07-29T11:58:01;6.20;;;3.20;;
16248;SDS011;8232;51.678;6.610;2022-07-29T12:00:29;5.43;;;3.15;;
16248;SDS011;8232;51.678;6.610;2022-07-29T12:02:58;6.70;;;3.55;;
16248;SDS011;8232;51.678;6.610;2022-07-29T12:05:32;4.60;;;3.20;;
16248;SDS011;8232;51.678;6.610;2022-07-29T12:08:10;5.53;;;3.30;;
16248;SDS011;8232;51.678;6.610;2022-07-29T12:10:40;5.15;;;3.55;;
16248;SDS011;8232;51.678;6.610;2022-07-29T12:13:08;7.50;;;3.75;;
16248;SDS011;8232;51.678;6.610;2022-07-29T12:15:36;10.35;;;3.40;;
16248;SDS011;8232;51.678;6.610;2022-07-29T12:18:10;16.42;;;3.75;;
16248;SDS011;8232;51.678;6.610;2022-07-29T12:20:38;6.13;;;3.40;;
16248;SDS011;8232;51.678;6.610;2022-07-29T12:23:05;6.30;;;3.28;;
16248;SDS011;8232;51.678;6.610;2022-07-29T12:25:34;5.55;;;3.15;;
16248;SDS011;8232;51.678;6.610;2022-07-29T12:28:04;9.77;;;3.20;;
16248;SDS011;8232;51.678;6.610;2022-07-29T12:30:36;5.07;;;3.20;;
16248;SDS011;8232;51.678;6.610;2022-07-29T12:33:15;6.32;;;3.53;;
16248;SDS011;8232;51.678;6.610;2022-07-29T12:35:46;10.23;;;3.60;;
16248;SDS011;8232;51.678;6.610;2022-07-29T12:38:14;4.75;;;3.38;;
16248;SDS011;8232;51.678;6.610;2022-07-29T12:40:42;6.88;;;3.55;;
16248;SDS011;8232;51.678;6.610;2022-07-29T12:43:12;10.98;;;3.40;;
16248;SDS011;8232;51.678;6.610;2022-07-29T12:45:41;8.20;;;3.10;;
16248;SDS011;8232;51.678;6.610;2022-07-29T12:48:09;7.65;;;3.05;;
16248;SDS011;8232;51.678;6.610;2022-07-29T12:50:51;3.80;;;3.00;;
16248;SDS011;8232;51.678;6.610;2022-07-29T12:53:19;4.88;;;2.97;;
16248;SDS011;8232;51.678;6.610;2022-07-29T12:55:46;4.95;;;3.20;;
16248;SDS011;8232;51.678;6.610;2022-07-29T13:01:10;5.15;;;2.90;;
16248;SDS011;8232;51.678;6.610;2022-07-29T13:03:43;8.50;;;3.20;;
16248;SDS011;8232;51.678;6.610;2022-07-29T13:08:59;4.95;;;2.70;;
16248;SDS011;8232;51.678;6.610;2022-07-29T13:11:29;4.43;;;2.95;;
16248;SDS011;8232;51.678;6.610;2022-07-29T13:13:57;4.88;;;2.90;;
16248;SDS011;8232;51.678;6.610;2022-07-29T13:16:24;5.45;;;3.50;;
16248;SDS011;8232;51.678;6.610;2022-07-29T13:19:02;4.28;;;3.05;;
16248;SDS011;8232;51.678;6.610;2022-07-29T13:21:30;10.10;;;3.50;;
16248;SDS011;8232;51.678;6.610;2022-07-29T13:23:57;7.22;;;3.00;;
16248;SDS011;8232;51.678;6.610;2022-07-29T13:26:24;5.40;;;3.35;;
16248;SDS011;8232;51.678;6.610;2022-07-29T13:28:50;6.57;;;2.92;;
16248;SDS011;8232;51.678;6.610;2022-07-29T13:31:18;7.32;;;3.75;;
16248;SDS011;8232;51.678;6.610;2022-07-29T13:33:45;4.10;;;2.90;;
16248;SDS011;8232;51.678;6.610;2022-07-29T13:36:12;5.28;;;2.83;;
16248;SDS011;8232;51.678;6.610;2022-07-29T13:38:39;8.02;;;3.00;;
16248;SDS011;8232;51.678;6.610;2022-07-29T13:41:07;5.78;;;3.10;;
16248;SDS011;8232;51.678;6.610;2022-07-29T13:43:34;5.70;;;3.47;;
16248;SDS011;8232;51.678;6.610;2022-07-29T13:46:01;6.60;;;3.40;;
16248;SDS011;8232;51.678;6.610;2022-07-29T13:48:29;4.78;;;3.17;;
16248;SDS011;8232;51.678;6.610;2022-07-29T13:50:56;5.68;;;3.63;;
16248;SDS011;8232;51.678;6.610;2022-07-29T13:53:23;6.10;;;2.97;;
16248;SDS011;8232;51.678;6.610;2022-07-29T13:55:50;8.02;;;3.97;;
16248;SDS011;8232;51.678;6.610;2022-07-29T13:58:16;4.45;;;3.45;;
16248;SDS011;8232;51.678;6.610;2022-07-29T14:00:43;7.00;;;3.72;;
16248;SDS011;8232;51.678;6.610;2022-07-29T14:03:11;6.25;;;3.53;;
16248;SDS011;8232;51.678;6.610;2022-07-29T14:05:39;6.93;;;3.50;;
16248;SDS011;8232;51.678;6.610;2022-07-29T14:08:06;6.60;;;3.45;;
16248;SDS011;8232;51.678;6.610;2022-07-29T14:10:33;7.28;;;3.40;;
16248;SDS011;8232;51.678;6.610;2022-07-29T14:13:00;7.07;;;3.63;;
16248;SDS011;8232;51.678;6.610;2022-07-29T14:15:27;4.32;;;2.85;;
16248;SDS011;8232;51.678;6.610;2022-07-29T14:17:53;6.60;;;3.22;;
16248;SDS011;8232;51.678;6.610;2022-07-29T14:20:20;7.80;;;3.65;;
16248;SDS011;8232;51.678;6.610;2022-07-29T14:22:49;5.10;;;3.13;;
16248;SDS011;8232;51.678;6.610;2022-07-29T14:25:15;8.88;;;3.35;;
16248;SDS011;8232;51.678;6.610;2022-07-29T14:27:42;5.40;;;3.15;;
16248;SDS011;8232;51.678;6.610;2022-07-29T14:30:09;6.00;;;3.47;;
16248;SDS011;8232;51.678;6.610;2022-07-29T14:32:37;4.82;;;2.97;;
16248;SDS011;8232;51.678;6.610;2022-07-29T14:35:04;7.65;;;4.00;;
16248;SDS011;8232;51.678;6.610;2022-07-29T14:37:32;8.13;;;3.97;;
16248;SDS011;8232;51.678;6.610;2022-07-29T14:40:02;4.43;;;3.13;;
16248;SDS011;8232;51.678;6.610;2022-07-29T14:42:29;5.30;;;2.80;;
16248;SDS011;8232;51.678;6.610;2022-07-29T14:44:57;4.60;;;3.13;;
16248;SDS011;8232;51.678;6.610;2022-07-29T14:47:24;6.70;;;2.90;;
16248;SDS011;8232;51.678;6.610;2022-07-29T14:49:50;9.38;;;3.00;;
16248;SDS011;8232;51.678;6.610;2022-07-29T14:52:17;8.05;;;3.15;;
16248;SDS011;8232;51.678;6.610;2022-07-29T14:54:44;5.13;;;2.90;;
16248;SDS011;8232;51.678;6.610;2022-07-29T14:57:12;8.43;;;2.70;;
16248;SDS011;8232;51.678;6.610;2022-07-29T14:59:39;6.40;;;3.53;;
16248;SDS011;8232;51.678;6.610;2022-07-29T15:02:06;5.43;;;3.10;;
16248;SDS011;8232;51.678;6.610;2022-07-29T15:04:33;5.97;;;3.38;;
16248;SDS011;8232;51.678;6.610;2022-07-29T15:06:59;7.53;;;3.15;;
16248;SDS011;8232;51.678;6.610;2022-07-29T15:09:26;5.43;;;2.88;;
16248;SDS011;8232;51.678;6.610;2022-07-29T15:11:53;5.88;;;3.13;;
16248;SDS011;8232;51.678;6.610;2022-07-29T15:14:21;5.82;;;2.83;;
16248;SDS011;8232;51.678;6.610;2022-07-29T15:16:48;7.15;;;2.75;;
16248;SDS011;8232;51.678;6.610;2022-07-29T15:19:15;3.53;;;2.42;;
16248;SDS011;8232;51.678;6.610;2022-07-29T15:21:42;6.70;;;2.40;;
16248;SDS011;8232;51.678;6.610;2022-07-29T15:24:09;6.10;;;2.25;;
16248;SDS011;8232;51.678;6.610;2022-07-29T15:26:36;5.20;;;2.53;;